sensor_id;sensor_type;location;lat;lon;timestamp;temperature;humidity
15690;DHT22;7945;48.816;11.506;2022-10-16T00:00:30;16.50;99.90
15690;DHT22;7945;48.816;11.506;2022-10-16T00:02:56;16.50;99.90
15690;DHT22;7945;48.816;11.506;2022-10-16T00:05:23;16.50;99.90
15690;DHT22;7945;48.816;11.506;2022-10-16T00:07:52;16.50;99.90
15690;DHT22;7945;48.816;11.506;2022-10-16T00:10:18;16.40;99.90
15690;DHT22;7945;48.816;11.506;2022-10-16T00:12:45;16.40;99.90
15690;DHT22;7945;48.816;11.506;2022-10-16T00:15:13;16.40;99.90
15690;DHT22;7945;48.816;11.506;2022-10-16T00:17:39;16.50;99.90
15690;DHT22;7945;48.816;11.506;2022-10-16T00:20:07;16.50;99.90
15690;DHT22;7945;48.816;11.506;2022-10-16T00:22:34;16.50;99.90
15690;DHT22;7945;48.816;11.506;2022-10-16T00:25:02;16.50;99.90
15690;DHT22;7945;48.816;11.506;2022-10-16T00:27:29;16.50;99.90
15690;DHT22;7945;48.816;11.506;2022-10-16T00:29:56;16.50;99.90
15690;DHT22;7945;48.816;11.506;2022-10-16T00:32:23;16.50;99.90
15690;DHT22;7945;48.816;11.506;2022-10-16T00:34:50;16.40;99.90
15690;DHT22;7945;48.816;11.506;2022-10-16T00:37:18;16.40;99.90
15690;DHT22;7945;48.816;11.506;2022-10-16T00:39:45;16.40;99.90
15690;DHT22;7945;48.816;11.506;2022-10-16T00:42:15;16.30;99.90
15690;DHT22;7945;48.816;11.506;2022-10-16T00:44:46;16.40;99.90
15690;DHT22;7945;48.816;11.506;2022-10-16T00:47:17;16.40;99.90
15690;DHT22;7945;48.816;11.506;2022-10-16T00:49:46;16.40;99.90
15690;DHT22;7945;48.816;11.506;2022-10-16T00:52:14;16.40;99.90
15690;DHT22;7945;48.816;11.506;2022-10-16T00:54:41;16.40;99.90
15690;DHT22;7945;48.816;11.506;2022-10-16T00:57:09;16.40;99.90
15690;DHT22;7945;48.816;11.506;2022-10-16T00:59:38;16.40;99.90
15690;DHT22;7945;48.816;11.506;2022-10-16T01:02:08;16.40;99.90
15690;DHT22;7945;48.816;11.506;2022-10-16T01:04:38;16.40;99.90
15690;DHT22;7945;48.816;11.506;2022-10-16T01:07:12;16.40;99.90
15690;DHT22;7945;48.816;11.506;2022-10-16T01:09:50;16.40;99.90
15690;DHT22;7945;48.816;11.506;2022-10-16T01:12:25;16.30;99.90
15690;DHT22;7945;48.816;11.506;2022-10-16T01:14:59;16.30;99.90
15690;DHT22;7945;48.816;11.506;2022-10-16T01:17:32;16.30;99.90
15690;DHT22;7945;48.816;11.506;2022-10-16T01:20:08;16.30;99.90
15690;DHT22;7945;48.816;11.506;2022-10-16T01:22:43;16.30;99.90
15690;DHT22;7945;48.816;11.506;2022-10-16T01:25:21;16.30;99.90
15690;DHT22;7945;48.816;11.506;2022-10-16T01:28:25;16.30;99.90
15690;DHT22;7945;48.816;11.506;2022-10-16T01:30:58;16.20;99.90
15690;DHT22;7945;48.816;11.506;2022-10-16T01:33:29;16.20;99.90
15690;DHT22;7945;48.816;11.506;2022-10-16T01:36:00;16.10;99.90
15690;DHT22;7945;48.816;11.506;2022-10-16T01:38:33;16.10;99.90
15690;DHT22;7945;48.816;11.506;2022-10-16T01:41:02;16.10;99.90
15690;DHT22;7945;48.816;11.506;2022-10-16T01:43:35;16.00;99.90
15690;DHT22;7945;48.816;11.506;2022-10-16T01:46:05;16.00;99.90
15690;DHT22;7945;48.816;11.506;2022-10-16T01:48:33;16.00;99.90
15690;DHT22;7945;48.816;11.506;2022-10-16T01:51:04;16.00;99.90
15690;DHT22;7945;48.816;11.506;2022-10-16T01:53:32;16.00;99.90
15690;DHT22;7945;48.816;11.506;2022-10-16T01:56:00;16.00;99.90
15690;DHT22;7945;48.816;11.506;2022-10-16T01:58:31;16.00;99.90
15690;DHT22;7945;48.816;11.506;2022-10-16T02:01:01;16.00;99.90
15690;DHT22;7945;48.816;11.506;2022-10-16T02:03:28;15.90;99.90
15690;DHT22;7945;48.816;11.506;2022-10-16T02:05:57;15.90;99.90
15690;DHT22;7945;48.816;11.506;2022-10-16T02:08:26;16.00;99.90
15690;DHT22;7945;48.816;11.506;2022-10-16T02:10:54;15.90;99.90
15690;DHT22;7945;48.816;11.506;2022-10-16T02:13:26;15.90;99.90
15690;DHT22;7945;48.816;11.506;2022-10-16T02:15:55;15.90;99.90
15690;DHT22;7945;48.816;11.506;2022-10-16T02:18:22;15.90;99.90
15690;DHT22;7945;48.816;11.506;2022-10-16T02:20:55;15.90;99.90
15690;DHT22;7945;48.816;11.506;2022-10-16T02:23:30;15.90;99.90
15690;DHT22;7945;48.816;11.506;2022-10-16T02:26:02;15.90;99.90
15690;DHT22;7945;48.816;11.506;2022-10-16T02:28:35;15.90;99.90
15690;DHT22;7945;48.816;11.506;2022-10-16T02:31:09;15.90;99.90
15690;DHT22;7945;48.816;11.506;2022-10-16T02:33:38;15.90;99.90
15690;DHT22;7945;48.816;11.506;2022-10-16T02:36:07;15.80;99.90
15690;DHT22;7945;48.816;11.506;2022-10-16T02:38:34;15.80;99.90
15690;DHT22;7945;48.816;11.506;2022-10-16T02:41:02;15.80;99.90
15690;DHT22;7945;48.816;11.506;2022-10-16T02:43:30;15.70;99.90
15690;DHT22;7945;48.816;11.506;2022-10-16T02:45:57;15.70;99.90
15690;DHT22;7945;48.816;11.506;2022-10-16T02:48:25;15.70;99.90
15690;DHT22;7945;48.816;11.506;2022-10-16T02:50:51;15.70;99.90
15690;DHT22;7945;48.816;11.506;2022-10-16T02:53:18;15.70;99.90
15690;DHT22;7945;48.816;11.506;2022-10-16T02:55:45;15.70;99.90
15690;DHT22;7945;48.816;11.506;2022-10-16T02:58:12;15.70;99.90
15690;DHT22;7945;48.816;11.506;2022-10-16T03:00:38;15.70;99.90
15690;DHT22;7945;48.816;11.506;2022-10-16T03:03:05;15.60;99.90
15690;DHT22;7945;48.816;11.506;2022-10-16T03:05:33;15.50;99.90
15690;DHT22;7945;48.816;11.506;2022-10-16T03:08:00;15.50;99.90
15690;DHT22;7945;48.816;11.506;2022-10-16T03:10:27;15.50;99.90
15690;DHT22;7945;48.816;11.506;2022-10-16T03:12:54;15.50;99.90
15690;DHT22;7945;48.816;11.506;2022-10-16T03:15:20;15.50;99.90
15690;DHT22;7945;48.816;11.506;2022-10-16T03:17:47;15.40;99.90
15690;DHT22;7945;48.816;11.506;2022-10-16T03:20:14;15.40;99.90
15690;DHT22;7945;48.816;11.506;2022-10-16T03:22:42;15.40;99.90
15690;DHT22;7945;48.816;11.506;2022-10-16T03:25:09;15.30;99.90
15690;DHT22;7945;48.816;11.506;2022-10-16T03:27:36;15.40;99.90
15690;DHT22;7945;48.816;11.506;2022-10-16T03:30:04;15.30;99.90
15690;DHT22;7945;48.816;11.506;2022-10-16T03:32:30;15.30;99.90
15690;DHT22;7945;48.816;11.506;2022-10-16T03:34:57;15.30;99.90
15690;DHT22;7945;48.816;11.506;2022-10-16T03:37:24;15.30;99.90
15690;DHT22;7945;48.816;11.506;2022-10-16T03:39:52;15.30;99.90
15690;DHT22;7945;48.816;11.506;2022-10-16T03:42:19;15.20;99.90
15690;DHT22;7945;48.816;11.506;2022-10-16T03:44:46;15.20;99.90
15690;DHT22;7945;48.816;11.506;2022-10-16T03:47:13;15.20;99.90
15690;DHT22;7945;48.816;11.506;2022-10-16T03:49:40;15.20;99.90
15690;DHT22;7945;48.816;11.506;2022-10-16T03:52:06;15.30;99.90
15690;DHT22;7945;48.816;11.506;2022-10-16T03:54:33;15.30;99.90
15690;DHT22;7945;48.816;11.506;2022-10-16T03:57:01;15.30;99.90
15690;DHT22;7945;48.816;11.506;2022-10-16T03:59:28;15.30;99.90
15690;DHT22;7945;48.816;11.506;2022-10-16T04:01:55;15.30;99.90
15690;DHT22;7945;48.816;11.506;2022-10-16T04:04:21;15.20;99.90
15690;DHT22;7945;48.816;11.506;2022-10-16T04:06:48;15.20;99.90
15690;DHT22;7945;48.816;11.506;2022-10-16T04:09:15;15.20;99.90
15690;DHT22;7945;48.816;11.506;2022-10-16T04:11:42;15.30;99.90
15690;DHT22;7945;48.816;11.506;2022-10-16T04:14:10;15.30;99.90
15690;DHT22;7945;48.816;11.506;2022-10-16T04:16:37;15.30;99.90
15690;DHT22;7945;48.816;11.506;2022-10-16T04:19:03;15.30;99.90
15690;DHT22;7945;48.816;11.506;2022-10-16T04:21:30;15.30;99.90
15690;DHT22;7945;48.816;11.506;2022-10-16T04:23:57;15.30;99.90
15690;DHT22;7945;48.816;11.506;2022-10-16T04:26:24;15.30;99.90
15690;DHT22;7945;48.816;11.506;2022-10-16T04:28:50;15.30;99.90
15690;DHT22;7945;48.816;11.506;2022-10-16T04:31:18;15.30;99.90
15690;DHT22;7945;48.816;11.506;2022-10-16T04:33:45;15.30;99.90
15690;DHT22;7945;48.816;11.506;2022-10-16T04:36:12;15.30;99.90
15690;DHT22;7945;48.816;11.506;2022-10-16T04:38:39;15.40;99.90
15690;DHT22;7945;48.816;11.506;2022-10-16T04:41:06;15.40;99.90
15690;DHT22;7945;48.816;11.506;2022-10-16T04:43:34;15.40;99.90
15690;DHT22;7945;48.816;11.506;2022-10-16T04:46:01;15.40;99.90
15690;DHT22;7945;48.816;11.506;2022-10-16T04:48:31;15.40;99.90
15690;DHT22;7945;48.816;11.506;2022-10-16T04:50:58;15.40;99.90
15690;DHT22;7945;48.816;11.506;2022-10-16T04:53:25;15.40;99.90
15690;DHT22;7945;48.816;11.506;2022-10-16T04:55:51;15.40;99.90
15690;DHT22;7945;48.816;11.506;2022-10-16T04:58:18;15.40;99.90
15690;DHT22;7945;48.816;11.506;2022-10-16T05:00:45;15.40;99.90
15690;DHT22;7945;48.816;11.506;2022-10-16T05:03:12;15.30;99.90
15690;DHT22;7945;48.816;11.506;2022-10-16T05:05:44;15.20;99.90
15690;DHT22;7945;48.816;11.506;2022-10-16T05:08:11;15.10;99.90
15690;DHT22;7945;48.816;11.506;2022-10-16T05:10:38;15.10;99.90
15690;DHT22;7945;48.816;11.506;2022-10-16T05:13:06;15.20;99.90
15690;DHT22;7945;48.816;11.506;2022-10-16T05:15:33;15.20;99.90
15690;DHT22;7945;48.816;11.506;2022-10-16T05:17:59;15.30;99.90
15690;DHT22;7945;48.816;11.506;2022-10-16T05:20:26;15.30;99.90
15690;DHT22;7945;48.816;11.506;2022-10-16T05:22:55;15.30;99.90
15690;DHT22;7945;48.816;11.506;2022-10-16T05:25:21;15.30;99.90
15690;DHT22;7945;48.816;11.506;2022-10-16T05:27:48;15.40;99.90
15690;DHT22;7945;48.816;11.506;2022-10-16T05:30:15;15.80;99.90
15690;DHT22;7945;48.816;11.506;2022-10-16T05:32:46;15.40;99.90
15690;DHT22;7945;48.816;11.506;2022-10-16T05:35:13;15.40;99.90
15690;DHT22;7945;48.816;11.506;2022-10-16T05:37:40;15.40;99.90
15690;DHT22;7945;48.816;11.506;2022-10-16T05:40:09;15.40;99.90
15690;DHT22;7945;48.816;11.506;2022-10-16T05:42:36;15.40;99.90
15690;DHT22;7945;48.816;11.506;2022-10-16T05:45:04;15.40;99.90
15690;DHT22;7945;48.816;11.506;2022-10-16T05:47:31;15.40;99.90
15690;DHT22;7945;48.816;11.506;2022-10-16T05:49:58;15.30;99.90
15690;DHT22;7945;48.816;11.506;2022-10-16T05:52:26;15.40;99.90
15690;DHT22;7945;48.816;11.506;2022-10-16T05:54:52;15.40;99.90
15690;DHT22;7945;48.816;11.506;2022-10-16T05:57:20;15.40;99.90
15690;DHT22;7945;48.816;11.506;2022-10-16T05:59:47;15.40;99.90
15690;DHT22;7945;48.816;11.506;2022-10-16T06:02:14;15.40;99.90
15690;DHT22;7945;48.816;11.506;2022-10-16T06:04:41;15.40;99.90
15690;DHT22;7945;48.816;11.506;2022-10-16T06:07:08;15.40;99.90
15690;DHT22;7945;48.816;11.506;2022-10-16T06:09:34;15.40;99.90
15690;DHT22;7945;48.816;11.506;2022-10-16T06:14:48;15.40;99.90
15690;DHT22;7945;48.816;11.506;2022-10-16T06:17:14;15.50;99.90
15690;DHT22;7945;48.816;11.506;2022-10-16T06:19:41;15.50;99.90
15690;DHT22;7945;48.816;11.506;2022-10-16T06:22:08;15.50;99.90
15690;DHT22;7945;48.816;11.506;2022-10-16T06:24:35;15.40;99.90
15690;DHT22;7945;48.816;11.506;2022-10-16T06:27:03;15.50;99.90
15690;DHT22;7945;48.816;11.506;2022-10-16T06:29:29;15.50;99.90
15690;DHT22;7945;48.816;11.506;2022-10-16T06:31:57;15.50;99.90
15690;DHT22;7945;48.816;11.506;2022-10-16T06:34:24;15.60;99.90
15690;DHT22;7945;48.816;11.506;2022-10-16T06:36:51;15.70;99.90
15690;DHT22;7945;48.816;11.506;2022-10-16T06:39:18;15.80;99.90
15690;DHT22;7945;48.816;11.506;2022-10-16T06:41:44;15.90;99.90
15690;DHT22;7945;48.816;11.506;2022-10-16T06:44:11;15.90;99.90
15690;DHT22;7945;48.816;11.506;2022-10-16T06:46:38;16.00;99.90
15690;DHT22;7945;48.816;11.506;2022-10-16T06:49:06;16.00;99.90
15690;DHT22;7945;48.816;11.506;2022-10-16T06:51:33;16.00;99.90
15690;DHT22;7945;48.816;11.506;2022-10-16T06:54:01;16.10;99.90
15690;DHT22;7945;48.816;11.506;2022-10-16T06:56:28;16.10;99.90
15690;DHT22;7945;48.816;11.506;2022-10-16T06:58:56;16.10;99.90
15690;DHT22;7945;48.816;11.506;2022-10-16T07:01:24;16.10;99.90
15690;DHT22;7945;48.816;11.506;2022-10-16T07:03:51;16.00;99.90
15690;DHT22;7945;48.816;11.506;2022-10-16T07:06:21;16.00;99.90
15690;DHT22;7945;48.816;11.506;2022-10-16T07:08:49;16.00;99.90
15690;DHT22;7945;48.816;11.506;2022-10-16T07:11:17;16.00;99.90
15690;DHT22;7945;48.816;11.506;2022-10-16T07:13:44;16.00;99.90
15690;DHT22;7945;48.816;11.506;2022-10-16T07:16:13;16.00;99.90
15690;DHT22;7945;48.816;11.506;2022-10-16T07:18:41;16.00;99.90
15690;DHT22;7945;48.816;11.506;2022-10-16T07:21:09;15.90;99.90
15690;DHT22;7945;48.816;11.506;2022-10-16T07:23:38;15.90;99.90
15690;DHT22;7945;48.816;11.506;2022-10-16T07:26:06;15.80;99.90
15690;DHT22;7945;48.816;11.506;2022-10-16T07:28:33;15.80;99.90
15690;DHT22;7945;48.816;11.506;2022-10-16T07:31:01;15.90;99.90
15690;DHT22;7945;48.816;11.506;2022-10-16T07:33:28;15.90;99.90
15690;DHT22;7945;48.816;11.506;2022-10-16T07:35:55;15.90;99.90
15690;DHT22;7945;48.816;11.506;2022-10-16T07:38:22;16.00;99.90
15690;DHT22;7945;48.816;11.506;2022-10-16T07:40:57;16.10;99.90
15690;DHT22;7945;48.816;11.506;2022-10-16T07:43:24;16.20;99.90
15690;DHT22;7945;48.816;11.506;2022-10-16T07:45:51;16.30;99.90
15690;DHT22;7945;48.816;11.506;2022-10-16T07:48:18;16.40;99.90
15690;DHT22;7945;48.816;11.506;2022-10-16T07:50:45;16.50;99.90
15690;DHT22;7945;48.816;11.506;2022-10-16T07:53:12;16.60;99.90
15690;DHT22;7945;48.816;11.506;2022-10-16T07:55:39;16.70;99.90
15690;DHT22;7945;48.816;11.506;2022-10-16T07:58:07;16.70;99.90
15690;DHT22;7945;48.816;11.506;2022-10-16T08:00:36;16.80;99.90
15690;DHT22;7945;48.816;11.506;2022-10-16T08:03:03;16.90;99.90
15690;DHT22;7945;48.816;11.506;2022-10-16T08:05:31;16.90;99.90
15690;DHT22;7945;48.816;11.506;2022-10-16T08:07:59;17.00;99.90
15690;DHT22;7945;48.816;11.506;2022-10-16T08:10:27;17.00;99.90
15690;DHT22;7945;48.816;11.506;2022-10-16T08:12:54;17.00;99.90
15690;DHT22;7945;48.816;11.506;2022-10-16T08:15:22;17.10;99.90
15690;DHT22;7945;48.816;11.506;2022-10-16T08:17:56;17.10;99.90
15690;DHT22;7945;48.816;11.506;2022-10-16T08:20:23;17.30;99.90
15690;DHT22;7945;48.816;11.506;2022-10-16T08:22:50;17.40;99.90
15690;DHT22;7945;48.816;11.506;2022-10-16T08:25:16;17.60;99.90
15690;DHT22;7945;48.816;11.506;2022-10-16T08:27:43;17.80;99.90
15690;DHT22;7945;48.816;11.506;2022-10-16T08:30:11;18.00;99.90
15690;DHT22;7945;48.816;11.506;2022-10-16T08:32:40;18.20;99.90
15690;DHT22;7945;48.816;11.506;2022-10-16T08:35:08;18.40;99.90
15690;DHT22;7945;48.816;11.506;2022-10-16T08:37:36;18.50;99.90
15690;DHT22;7945;48.816;11.506;2022-10-16T08:40:04;18.60;99.90
15690;DHT22;7945;48.816;11.506;2022-10-16T08:42:51;18.70;99.90
15690;DHT22;7945;48.816;11.506;2022-10-16T08:45:32;18.70;99.90
15690;DHT22;7945;48.816;11.506;2022-10-16T08:48:13;18.80;99.90
15690;DHT22;7945;48.816;11.506;2022-10-16T08:50:41;18.60;99.90
15690;DHT22;7945;48.816;11.506;2022-10-16T08:53:13;19.10;99.90
15690;DHT22;7945;48.816;11.506;2022-10-16T08:55:42;19.00;99.90
15690;DHT22;7945;48.816;11.506;2022-10-16T08:58:12;19.10;99.90
15690;DHT22;7945;48.816;11.506;2022-10-16T09:00:40;19.10;99.90
15690;DHT22;7945;48.816;11.506;2022-10-16T09:03:17;19.20;99.90
15690;DHT22;7945;48.816;11.506;2022-10-16T09:06:21;19.30;99.90
15690;DHT22;7945;48.816;11.506;2022-10-16T09:09:05;19.60;99.90
15690;DHT22;7945;48.816;11.506;2022-10-16T09:11:44;19.80;99.90
15690;DHT22;7945;48.816;11.506;2022-10-16T09:14:23;20.10;99.90
15690;DHT22;7945;48.816;11.506;2022-10-16T09:17:11;20.30;99.90
15690;DHT22;7945;48.816;11.506;2022-10-16T09:19:46;20.50;99.90
15690;DHT22;7945;48.816;11.506;2022-10-16T09:22:16;20.60;99.90
15690;DHT22;7945;48.816;11.506;2022-10-16T09:24:43;20.70;99.90
15690;DHT22;7945;48.816;11.506;2022-10-16T09:27:10;20.70;99.90
15690;DHT22;7945;48.816;11.506;2022-10-16T09:29:37;20.90;99.90
15690;DHT22;7945;48.816;11.506;2022-10-16T09:32:11;20.90;99.90
15690;DHT22;7945;48.816;11.506;2022-10-16T09:34:43;20.80;99.90
15690;DHT22;7945;48.816;11.506;2022-10-16T09:37:14;20.70;99.90
15690;DHT22;7945;48.816;11.506;2022-10-16T09:39:44;21.10;99.90
15690;DHT22;7945;48.816;11.506;2022-10-16T09:42:14;20.60;99.90
15690;DHT22;7945;48.816;11.506;2022-10-16T09:44:42;20.50;99.90
15690;DHT22;7945;48.816;11.506;2022-10-16T09:47:14;20.50;99.90
15690;DHT22;7945;48.816;11.506;2022-10-16T09:49:52;20.50;99.90
15690;DHT22;7945;48.816;11.506;2022-10-16T09:52:19;20.50;99.90
15690;DHT22;7945;48.816;11.506;2022-10-16T09:54:51;20.60;99.90
15690;DHT22;7945;48.816;11.506;2022-10-16T09:57:18;20.80;99.90
15690;DHT22;7945;48.816;11.506;2022-10-16T09:59:49;20.80;99.90
15690;DHT22;7945;48.816;11.506;2022-10-16T10:02:17;20.80;99.90
15690;DHT22;7945;48.816;11.506;2022-10-16T10:04:49;20.80;99.90
15690;DHT22;7945;48.816;11.506;2022-10-16T10:07:23;20.80;99.90
15690;DHT22;7945;48.816;11.506;2022-10-16T10:09:50;20.70;99.90
15690;DHT22;7945;48.816;11.506;2022-10-16T10:12:19;20.70;99.90
15690;DHT22;7945;48.816;11.506;2022-10-16T10:14:48;20.70;99.90
15690;DHT22;7945;48.816;11.506;2022-10-16T10:17:17;20.70;99.90
15690;DHT22;7945;48.816;11.506;2022-10-16T10:19:52;20.70;99.90
15690;DHT22;7945;48.816;11.506;2022-10-16T10:22:30;20.80;99.90
15690;DHT22;7945;48.816;11.506;2022-10-16T10:27:50;20.80;99.90
15690;DHT22;7945;48.816;11.506;2022-10-16T10:30:24;20.90;99.90
15690;DHT22;7945;48.816;11.506;2022-10-16T10:33:05;20.90;99.90
15690;DHT22;7945;48.816;11.506;2022-10-16T10:35:44;20.90;99.90
15690;DHT22;7945;48.816;11.506;2022-10-16T10:38:27;21.00;99.90
15690;DHT22;7945;48.816;11.506;2022-10-16T10:41:05;21.00;99.60
15690;DHT22;7945;48.816;11.506;2022-10-16T10:43:47;20.90;99.20
15690;DHT22;7945;48.816;11.506;2022-10-16T10:46:25;21.10;99.40
15690;DHT22;7945;48.816;11.506;2022-10-16T10:49:10;21.20;99.20
15690;DHT22;7945;48.816;11.506;2022-10-16T10:51:44;21.40;99.30
15690;DHT22;7945;48.816;11.506;2022-10-16T10:54:24;21.80;99.00
15690;DHT22;7945;48.816;11.506;2022-10-16T10:56:57;22.10;98.10
15690;DHT22;7945;48.816;11.506;2022-10-16T10:59:39;22.20;97.40
15690;DHT22;7945;48.816;11.506;2022-10-16T11:02:18;22.30;97.50
15690;DHT22;7945;48.816;11.506;2022-10-16T11:05:15;22.30;97.30
15690;DHT22;7945;48.816;11.506;2022-10-16T11:07:48;22.40;97.50
15690;DHT22;7945;48.816;11.506;2022-10-16T11:10:21;22.30;97.50
15690;DHT22;7945;48.816;11.506;2022-10-16T11:12:52;22.40;97.70
15690;DHT22;7945;48.816;11.506;2022-10-16T11:15:25;22.50;97.30
15690;DHT22;7945;48.816;11.506;2022-10-16T11:17:57;22.60;97.30
15690;DHT22;7945;48.816;11.506;2022-10-16T11:20:27;22.70;97.50
15690;DHT22;7945;48.816;11.506;2022-10-16T11:22:58;22.80;97.20
15690;DHT22;7945;48.816;11.506;2022-10-16T11:25:29;22.70;96.90
15690;DHT22;7945;48.816;11.506;2022-10-16T11:28:00;22.80;97.50
15690;DHT22;7945;48.816;11.506;2022-10-16T11:30:30;22.80;97.20
15690;DHT22;7945;48.816;11.506;2022-10-16T11:33:08;22.80;97.10
15690;DHT22;7945;48.816;11.506;2022-10-16T11:35:43;22.70;97.30
15690;DHT22;7945;48.816;11.506;2022-10-16T11:38:15;22.70;97.50
15690;DHT22;7945;48.816;11.506;2022-10-16T11:40:51;22.60;98.00
15690;DHT22;7945;48.816;11.506;2022-10-16T11:43:22;22.50;97.00
15690;DHT22;7945;48.816;11.506;2022-10-16T11:45:53;22.40;97.50
15690;DHT22;7945;48.816;11.506;2022-10-16T11:48:26;22.40;98.00
15690;DHT22;7945;48.816;11.506;2022-10-16T11:50:57;22.30;98.00
15690;DHT22;7945;48.816;11.506;2022-10-16T11:53:35;22.20;98.30
15690;DHT22;7945;48.816;11.506;2022-10-16T11:56:05;22.20;98.40
15690;DHT22;7945;48.816;11.506;2022-10-16T11:58:35;22.20;97.90
15690;DHT22;7945;48.816;11.506;2022-10-16T12:01:15;22.30;97.80
15690;DHT22;7945;48.816;11.506;2022-10-16T12:03:46;22.30;97.50
15690;DHT22;7945;48.816;11.506;2022-10-16T12:06:27;22.40;97.90
15690;DHT22;7945;48.816;11.506;2022-10-16T12:08:58;22.60;97.40
15690;DHT22;7945;48.816;11.506;2022-10-16T12:11:36;22.60;97.00
15690;DHT22;7945;48.816;11.506;2022-10-16T12:14:18;22.60;96.70
15690;DHT22;7945;48.816;11.506;2022-10-16T12:16:52;22.60;97.10
15690;DHT22;7945;48.816;11.506;2022-10-16T12:19:20;22.70;96.50
15690;DHT22;7945;48.816;11.506;2022-10-16T12:21:48;22.80;96.60
15690;DHT22;7945;48.816;11.506;2022-10-16T12:24:30;22.80;97.10
15690;DHT22;7945;48.816;11.506;2022-10-16T12:26:59;22.80;96.70
15690;DHT22;7945;48.816;11.506;2022-10-16T12:29:33;22.70;96.80
15690;DHT22;7945;48.816;11.506;2022-10-16T12:32:01;22.70;96.90
15690;DHT22;7945;48.816;11.506;2022-10-16T12:34:32;22.70;96.70
15690;DHT22;7945;48.816;11.506;2022-10-16T12:37:10;22.60;96.80
15690;DHT22;7945;48.816;11.506;2022-10-16T12:39:37;22.60;96.80
15690;DHT22;7945;48.816;11.506;2022-10-16T12:42:20;22.60;96.80
15690;DHT22;7945;48.816;11.506;2022-10-16T12:44:48;22.50;96.90
15690;DHT22;7945;48.816;11.506;2022-10-16T12:47:23;22.50;97.00
15690;DHT22;7945;48.816;11.506;2022-10-16T12:49:52;22.40;97.20
15690;DHT22;7945;48.816;11.506;2022-10-16T12:52:27;22.50;97.30
15690;DHT22;7945;48.816;11.506;2022-10-16T12:54:56;22.40;97.20
15690;DHT22;7945;48.816;11.506;2022-10-16T12:57:37;22.50;97.30
15690;DHT22;7945;48.816;11.506;2022-10-16T13:00:14;22.60;97.50
15690;DHT22;7945;48.816;11.506;2022-10-16T13:03:04;22.60;97.40
15690;DHT22;7945;48.816;11.506;2022-10-16T13:05:49;22.70;97.40
15690;DHT22;7945;48.816;11.506;2022-10-16T13:08:37;22.80;97.40
15690;DHT22;7945;48.816;11.506;2022-10-16T13:11:12;22.90;97.20
15690;DHT22;7945;48.816;11.506;2022-10-16T13:14:05;22.90;97.30
15690;DHT22;7945;48.816;11.506;2022-10-16T13:16:44;23.00;97.30
15690;DHT22;7945;48.816;11.506;2022-10-16T13:19:23;23.00;97.20
15690;DHT22;7945;48.816;11.506;2022-10-16T13:22:01;23.00;96.80
15690;DHT22;7945;48.816;11.506;2022-10-16T13:24:42;23.10;97.30
15690;DHT22;7945;48.816;11.506;2022-10-16T13:27:22;23.10;97.40
15690;DHT22;7945;48.816;11.506;2022-10-16T13:30:01;23.10;97.30
15690;DHT22;7945;48.816;11.506;2022-10-16T13:32:28;23.20;97.00
15690;DHT22;7945;48.816;11.506;2022-10-16T13:34:55;23.20;97.00
15690;DHT22;7945;48.816;11.506;2022-10-16T13:37:24;23.20;97.10
15690;DHT22;7945;48.816;11.506;2022-10-16T13:40:05;23.10;97.20
15690;DHT22;7945;48.816;11.506;2022-10-16T13:42:34;23.20;97.30
15690;DHT22;7945;48.816;11.506;2022-10-16T13:45:02;23.10;97.20
15690;DHT22;7945;48.816;11.506;2022-10-16T13:47:29;23.10;97.00
15690;DHT22;7945;48.816;11.506;2022-10-16T13:50:01;23.10;97.00
15690;DHT22;7945;48.816;11.506;2022-10-16T13:52:29;23.20;97.00
15690;DHT22;7945;48.816;11.506;2022-10-16T13:54:55;23.20;97.00
15690;DHT22;7945;48.816;11.506;2022-10-16T13:57:23;23.20;97.00
15690;DHT22;7945;48.816;11.506;2022-10-16T13:59:51;23.10;97.00
15690;DHT22;7945;48.816;11.506;2022-10-16T14:02:24;23.10;96.80
15690;DHT22;7945;48.816;11.506;2022-10-16T14:04:52;23.10;96.60
15690;DHT22;7945;48.816;11.506;2022-10-16T14:07:24;23.10;96.80
15690;DHT22;7945;48.816;11.506;2022-10-16T14:09:52;23.00;97.00
15690;DHT22;7945;48.816;11.506;2022-10-16T14:12:20;23.00;97.00
15690;DHT22;7945;48.816;11.506;2022-10-16T14:14:51;23.20;97.00
15690;DHT22;7945;48.816;11.506;2022-10-16T14:17:22;23.00;97.10
15690;DHT22;7945;48.816;11.506;2022-10-16T14:19:52;23.00;97.00
15690;DHT22;7945;48.816;11.506;2022-10-16T14:22:27;23.00;96.60
15690;DHT22;7945;48.816;11.506;2022-10-16T14:24:54;23.00;96.80
15690;DHT22;7945;48.816;11.506;2022-10-16T14:27:26;22.90;96.10
15690;DHT22;7945;48.816;11.506;2022-10-16T14:30:12;22.90;96.30
15690;DHT22;7945;48.816;11.506;2022-10-16T14:32:42;22.90;96.80
15690;DHT22;7945;48.816;11.506;2022-10-16T14:35:24;22.90;97.30
15690;DHT22;7945;48.816;11.506;2022-10-16T14:37:52;22.90;97.00
15690;DHT22;7945;48.816;11.506;2022-10-16T14:40:19;22.80;96.90
15690;DHT22;7945;48.816;11.506;2022-10-16T14:42:47;22.80;97.00
15690;DHT22;7945;48.816;11.506;2022-10-16T14:45:19;22.80;97.20
15690;DHT22;7945;48.816;11.506;2022-10-16T14:47:50;22.80;97.00
15690;DHT22;7945;48.816;11.506;2022-10-16T14:50:18;22.70;97.10
15690;DHT22;7945;48.816;11.506;2022-10-16T14:52:45;23.30;97.30
15690;DHT22;7945;48.816;11.506;2022-10-16T14:55:12;22.70;97.60
15690;DHT22;7945;48.816;11.506;2022-10-16T14:57:39;22.70;97.30
15690;DHT22;7945;48.816;11.506;2022-10-16T15:00:15;22.60;97.30
15690;DHT22;7945;48.816;11.506;2022-10-16T15:02:42;22.60;96.90
15690;DHT22;7945;48.816;11.506;2022-10-16T15:05:17;22.60;97.20
15690;DHT22;7945;48.816;11.506;2022-10-16T15:07:44;22.50;97.20
15690;DHT22;7945;48.816;11.506;2022-10-16T15:10:11;22.50;97.40
15690;DHT22;7945;48.816;11.506;2022-10-16T15:12:38;22.50;97.60
15690;DHT22;7945;48.816;11.506;2022-10-16T15:15:23;22.40;98.10
15690;DHT22;7945;48.816;11.506;2022-10-16T15:17:52;22.40;98.10
15690;DHT22;7945;48.816;11.506;2022-10-16T15:20:22;22.30;98.00
15690;DHT22;7945;48.816;11.506;2022-10-16T15:22:49;22.30;98.20
15690;DHT22;7945;48.816;11.506;2022-10-16T15:25:27;22.20;97.90
15690;DHT22;7945;48.816;11.506;2022-10-16T15:27:55;22.20;98.20
15690;DHT22;7945;48.816;11.506;2022-10-16T15:30:22;22.10;98.50
15690;DHT22;7945;48.816;11.506;2022-10-16T15:32:49;22.10;98.00
15690;DHT22;7945;48.816;11.506;2022-10-16T15:35:15;22.00;98.10
15690;DHT22;7945;48.816;11.506;2022-10-16T15:37:44;21.90;98.70
15690;DHT22;7945;48.816;11.506;2022-10-16T15:40:10;21.90;98.70
15690;DHT22;7945;48.816;11.506;2022-10-16T15:42:37;21.80;99.00
15690;DHT22;7945;48.816;11.506;2022-10-16T15:45:05;21.60;99.10
15690;DHT22;7945;48.816;11.506;2022-10-16T15:47:32;21.70;99.20
15690;DHT22;7945;48.816;11.506;2022-10-16T15:49:59;21.60;99.60
15690;DHT22;7945;48.816;11.506;2022-10-16T15:52:26;21.50;99.90
15690;DHT22;7945;48.816;11.506;2022-10-16T15:54:55;21.50;99.90